createdAt,value
2019-06-27T00:01:49.925Z,30.20
2019-06-27T00:04:19.880Z,30.20
2019-06-27T00:06:49.789Z,30.10
2019-06-27T00:09:20.361Z,30.10
2019-06-27T00:11:50.344Z,30.10
2019-06-27T00:14:20.246Z,30.10
2019-06-27T00:16:50.256Z,29.90
2019-06-27T00:19:20.165Z,29.90
2019-06-27T00:21:50.141Z,29.70
2019-06-27T00:24:20.044Z,29.70
2019-06-27T00:26:57.246Z,29.70
2019-06-27T00:29:21.579Z,29.60
2019-06-27T00:31:51.505Z,29.60
2019-06-27T00:34:21.444Z,29.40
2019-06-27T00:36:51.374Z,29.40
2019-06-27T00:39:21.327Z,29.40
2019-06-27T00:44:20.614Z,29.50
2019-06-27T00:46:50.524Z,29.40
2019-06-27T00:49:20.454Z,29.30
2019-06-27T00:51:50.447Z,29.20
2019-06-27T00:54:20.356Z,29.30
2019-06-27T00:56:50.448Z,29.30
2019-06-27T00:59:20.504Z,29.10
2019-06-27T01:09:36.892Z,28.90
2019-06-27T01:14:48.631Z,28.90
2019-06-27T01:19:53.804Z,28.70
2019-06-27T01:24:59.129Z,28.70
2019-06-27T01:27:30.500Z,28.70
2019-06-27T01:30:00.608Z,28.60
2019-06-27T01:37:42.221Z,28.40
2019-06-27T01:40:12.391Z,28.30
2019-06-27T01:42:42.385Z,28.30
2019-06-27T01:45:30.944Z,28.30
2019-06-27T01:48:00.842Z,28.30
2019-06-27T01:50:30.824Z,28.30
2019-06-27T01:53:00.773Z,28.20
2019-06-27T01:55:30.736Z,28.10
2019-06-27T01:58:00.745Z,28.10
2019-06-27T02:00:30.921Z,28.00
2019-06-27T02:05:36.624Z,27.90
2019-06-27T02:08:10.912Z,27.90
2019-06-27T02:10:41.120Z,27.90
2019-06-27T02:13:16.340Z,27.90
2019-06-27T02:15:46.424Z,27.90
2019-06-27T02:18:16.411Z,28.00
2019-06-27T02:20:46.316Z,27.90
2019-06-27T02:23:16.410Z,27.80
2019-06-27T02:25:46.375Z,27.70
2019-06-27T02:28:16.360Z,27.70
2019-06-27T02:30:46.808Z,27.80
2019-06-27T02:33:16.702Z,27.80
2019-06-27T02:35:46.617Z,27.60
2019-06-27T02:38:16.572Z,27.60
2019-06-27T02:40:46.449Z,27.60
2019-06-27T02:43:16.533Z,27.60
2019-06-27T02:45:46.494Z,27.50
2019-06-27T02:48:16.508Z,27.50
2019-06-27T02:50:46.455Z,27.30
2019-06-27T02:53:16.349Z,27.40
2019-06-27T02:55:46.238Z,27.50
2019-06-27T02:58:29.606Z,27.50
2019-06-27T03:00:47.721Z,27.40
2019-06-27T03:03:17.682Z,27.40
2019-06-27T03:05:47.573Z,27.30
2019-06-27T03:08:17.579Z,27.30
2019-06-27T03:10:47.540Z,27.20
2019-06-27T03:13:17.609Z,27.10
2019-06-27T03:15:47.525Z,27.20
2019-06-27T03:18:17.447Z,27.20
2019-06-27T03:20:47.498Z,27.20
2019-06-27T03:23:17.478Z,27.20
2019-06-27T03:25:47.381Z,27.20
2019-06-27T03:28:17.277Z,27.00
2019-06-27T03:30:47.309Z,27.00
2019-06-27T03:33:17.389Z,27.00
2019-06-27T03:35:47.335Z,26.90
2019-06-27T03:38:17.269Z,26.90
2019-06-27T03:40:47.356Z,26.80
2019-06-27T03:43:17.281Z,26.80
2019-06-27T03:45:47.258Z,26.80
2019-06-27T03:48:17.748Z,26.80
2019-06-27T03:50:47.659Z,26.80
2019-06-27T03:53:17.624Z,26.80
2019-06-27T03:55:47.563Z,26.70
2019-06-27T03:58:17.570Z,26.60
2019-06-27T04:00:47.618Z,26.60
2019-06-27T04:03:17.529Z,26.70
2019-06-27T04:05:47.474Z,26.60
2019-06-27T04:08:17.400Z,26.70
2019-06-27T04:10:47.494Z,26.60
2019-06-27T04:13:17.641Z,26.70
2019-06-27T04:18:16.990Z,26.40
2019-06-27T04:20:46.970Z,26.50
2019-06-27T04:23:16.888Z,26.30
2019-06-27T04:25:46.940Z,26.40
2019-06-27T04:28:17.185Z,26.40
2019-06-27T04:30:47.197Z,26.50
2019-06-27T04:33:17.212Z,26.40
2019-06-27T04:35:47.176Z,26.40
2019-06-27T04:38:17.080Z,26.40
2019-06-27T04:40:46.995Z,26.60
2019-06-27T04:43:16.876Z,26.60
2019-06-27T04:45:46.821Z,26.50
2019-06-27T04:48:16.686Z,26.50
2019-06-27T04:50:46.594Z,26.40
2019-06-27T04:53:16.551Z,26.50
2019-06-27T04:55:46.563Z,26.40
2019-06-27T04:58:16.456Z,26.40
2019-06-27T05:00:46.370Z,26.40
2019-06-27T05:03:16.568Z,26.50
2019-06-27T05:05:46.555Z,26.60
2019-06-27T05:08:16.441Z,26.60
2019-06-27T05:10:46.370Z,26.70
2019-06-27T05:13:16.252Z,26.70
2019-06-27T05:15:46.193Z,26.70
2019-06-27T05:18:16.130Z,26.70
2019-06-27T05:20:46.152Z,26.80
2019-06-27T05:23:16.044Z,26.70
2019-06-27T05:25:45.925Z,26.70
2019-06-27T05:28:15.808Z,26.80
2019-06-27T05:30:45.720Z,26.70
2019-06-27T05:33:15.703Z,26.80
2019-06-27T05:35:45.604Z,26.70
2019-06-27T05:38:15.504Z,26.70
2019-06-27T05:40:45.450Z,26.80
2019-06-27T05:43:15.431Z,26.90
2019-06-27T05:45:45.322Z,26.90
2019-06-27T05:48:15.389Z,27.10
2019-06-27T05:50:45.265Z,27.10
2019-06-27T05:53:15.296Z,27.10
2019-06-27T05:55:45.284Z,27.10
2019-06-27T05:58:15.271Z,27.20
2019-06-27T06:00:45.151Z,27.30
2019-06-27T06:03:15.071Z,27.20
2019-06-27T06:05:44.988Z,27.30
2019-06-27T06:08:14.903Z,27.30
2019-06-27T06:10:44.802Z,27.50
2019-06-27T06:13:14.761Z,27.40
2019-06-27T06:15:44.875Z,27.40
2019-06-27T06:18:15.163Z,27.50
2019-06-27T06:20:45.084Z,27.50
2019-06-27T06:23:15.083Z,27.60
2019-06-27T06:25:45.096Z,27.60
2019-06-27T06:28:15.369Z,27.70
2019-06-27T06:30:45.493Z,27.70
2019-06-27T06:33:15.588Z,27.60
2019-06-27T06:35:45.545Z,27.90
2019-06-27T06:38:15.420Z,27.90
2019-06-27T06:40:45.610Z,28.00
2019-06-27T06:43:16.255Z,28.00
2019-06-27T06:45:46.220Z,28.10
2019-06-27T06:48:16.188Z,28.20
2019-06-27T06:50:52.203Z,28.40
2019-06-27T06:53:22.151Z,28.40
2019-06-27T06:55:52.400Z,28.40
2019-06-27T06:58:22.351Z,28.30
2019-06-27T07:01:01.482Z,28.30
2019-06-27T07:03:23.902Z,28.40
2019-06-27T07:05:53.829Z,28.50
2019-06-27T07:08:23.804Z,28.60
2019-06-27T07:10:53.670Z,28.40
2019-06-27T07:13:23.840Z,28.70
2019-06-27T07:15:53.731Z,28.80
2019-06-27T07:18:23.728Z,28.70
2019-06-27T07:20:53.596Z,28.60
2019-06-27T07:23:23.470Z,28.70
2019-06-27T07:25:53.412Z,28.90
2019-06-27T07:28:23.314Z,28.90
2019-06-27T07:30:53.197Z,28.60
2019-06-27T07:33:23.121Z,28.80
2019-06-27T07:35:53.040Z,28.90
2019-06-27T07:38:22.977Z,28.90
2019-06-27T07:40:52.944Z,28.90
2019-06-27T07:43:22.879Z,28.90
2019-06-27T07:45:52.955Z,28.90
2019-06-27T07:48:22.941Z,28.90
2019-06-27T07:50:52.939Z,29.20
2019-06-27T07:53:22.974Z,29.40
2019-06-27T07:55:52.955Z,29.30
2019-06-27T07:58:22.872Z,29.30
2019-06-27T08:00:52.817Z,29.40
2019-06-27T08:03:22.790Z,29.50
2019-06-27T08:05:52.776Z,29.50
2019-06-27T08:08:22.778Z,29.30
2019-06-27T08:10:52.875Z,29.50
2019-06-27T08:13:23.042Z,29.40
2019-06-27T08:15:52.943Z,29.40
2019-06-27T08:18:22.992Z,29.50
2019-06-27T08:20:52.922Z,29.80
2019-06-27T08:23:22.916Z,29.70
2019-06-27T08:25:52.913Z,29.70
2019-06-27T08:28:22.851Z,29.60
2019-06-27T08:30:52.895Z,29.70
2019-06-27T08:33:22.970Z,29.60
2019-06-27T08:35:53.057Z,29.70
2019-06-27T08:38:23.070Z,29.80
2019-06-27T08:40:53.003Z,29.70
2019-06-27T08:43:22.892Z,29.50
2019-06-27T08:45:53.000Z,29.70
2019-06-27T08:48:23.011Z,29.70
2019-06-27T08:50:53.056Z,29.70
2019-06-27T08:53:23.114Z,29.70
2019-06-27T08:55:53.166Z,29.60
2019-06-27T08:58:23.112Z,29.90
2019-06-27T09:00:53.094Z,30.10
2019-06-27T09:03:23.135Z,30.10
2019-06-27T09:05:53.073Z,30.00
2019-06-27T09:08:23.036Z,29.90
2019-06-27T09:10:52.991Z,30.00
2019-06-27T09:13:23.068Z,30.00
2019-06-27T09:15:52.995Z,29.90
2019-06-27T09:18:22.909Z,30.20
2019-06-27T09:20:52.951Z,30.10
2019-06-27T09:23:23.067Z,30.00
2019-06-27T09:25:53.064Z,30.10
2019-06-27T09:28:22.994Z,30.10
2019-06-27T09:30:52.929Z,30.00
2019-06-27T09:33:22.895Z,30.20
2019-06-27T09:35:52.853Z,30.30
2019-06-27T09:38:22.858Z,30.20
2019-06-27T09:40:52.710Z,30.20
2019-06-27T09:43:22.701Z,30.10
2019-06-27T09:45:52.736Z,30.10
2019-06-27T09:48:22.714Z,30.20
2019-06-27T09:50:52.677Z,30.20
2019-06-27T09:53:22.668Z,30.30
2019-06-27T09:55:52.728Z,30.30
2019-06-27T09:58:22.607Z,30.30
2019-06-27T10:00:52.631Z,30.30
2019-06-27T10:03:22.538Z,30.30
2019-06-27T10:05:52.825Z,30.30
2019-06-27T10:08:22.807Z,30.20
2019-06-27T10:10:52.711Z,30.20
2019-06-27T10:13:22.607Z,30.30
2019-06-27T10:15:52.545Z,30.30
2019-06-27T10:18:22.578Z,30.40
2019-06-27T10:20:52.484Z,30.40
2019-06-27T10:23:22.372Z,30.50
2019-06-27T10:25:52.326Z,30.40
2019-06-27T10:28:22.223Z,30.50
2019-06-27T10:30:52.128Z,30.50
2019-06-27T10:33:22.084Z,30.50
2019-06-27T10:35:52.120Z,30.50
2019-06-27T10:38:22.011Z,30.50
2019-06-27T10:40:51.898Z,30.40
2019-06-27T10:43:21.863Z,30.60
2019-06-27T10:45:51.864Z,30.40
2019-06-27T10:48:21.972Z,30.30
2019-06-27T10:50:54.635Z,30.30
2019-06-27T10:53:23.567Z,30.60
2019-06-27T10:55:53.559Z,30.50
2019-06-27T10:58:23.503Z,30.50
2019-06-27T11:00:53.386Z,30.40
2019-06-27T11:03:23.298Z,30.40
2019-06-27T11:05:53.176Z,30.40
2019-06-27T11:08:23.049Z,30.40
2019-06-27T11:10:53.043Z,30.30
2019-06-27T11:13:23.028Z,30.40
2019-06-27T11:15:52.880Z,30.20
2019-06-27T11:18:22.875Z,30.30
2019-06-27T11:20:53.081Z,30.50
2019-06-27T11:23:23.087Z,30.40
2019-06-27T11:25:53.170Z,30.30
2019-06-27T11:28:23.058Z,30.30
2019-06-27T11:30:53.071Z,30.40
2019-06-27T11:33:32.560Z,30.40
2019-06-27T11:35:54.684Z,30.40
2019-06-27T11:38:24.967Z,30.40
2019-06-27T11:40:55.190Z,30.40
2019-06-27T11:43:25.092Z,30.50
2019-06-27T11:45:54.972Z,30.50
2019-06-27T11:48:24.864Z,30.50
2019-06-27T11:50:54.814Z,30.50
2019-06-27T11:53:24.711Z,30.50
2019-06-27T11:55:54.587Z,30.60
2019-06-27T11:58:24.794Z,30.60
2019-06-27T12:00:54.703Z,30.50
2019-06-27T12:03:24.615Z,30.50
2019-06-27T12:05:54.550Z,30.50
2019-06-27T12:08:24.435Z,30.60
2019-06-27T12:10:54.443Z,30.50
2019-06-27T12:13:24.335Z,30.40
2019-06-27T12:15:54.265Z,30.40
2019-06-27T12:18:24.231Z,30.60
2019-06-27T12:20:54.279Z,30.60
2019-06-27T12:23:24.193Z,30.60
2019-06-27T12:25:54.236Z,30.50
2019-06-27T12:28:24.135Z,30.60
2019-06-27T12:30:54.196Z,30.60
2019-06-27T12:33:24.131Z,30.60
2019-06-27T12:35:54.128Z,30.60
2019-06-27T12:38:25.323Z,30.70
2019-06-27T12:40:55.321Z,30.70
2019-06-27T12:43:25.203Z,30.70
2019-06-27T12:45:55.104Z,30.60
2019-06-27T12:48:25.000Z,30.60
2019-06-27T12:50:55.005Z,30.60
2019-06-27T12:53:25.055Z,30.60
2019-06-27T12:55:54.921Z,30.70
2019-06-27T12:58:24.992Z,30.80
2019-06-27T13:00:54.961Z,30.80
2019-06-27T13:03:24.860Z,30.70
2019-06-27T13:05:54.771Z,30.70
2019-06-27T13:08:24.757Z,30.80
2019-06-27T13:10:54.687Z,30.70
2019-06-27T13:13:24.656Z,30.90
2019-06-27T13:15:54.609Z,31.00
2019-06-27T13:18:24.487Z,31.00
2019-06-27T13:20:58.463Z,31.10
2019-06-27T13:23:25.948Z,31.10
2019-06-27T13:25:55.925Z,31.10
2019-06-27T13:28:25.870Z,31.20
2019-06-27T13:30:55.809Z,31.20
2019-06-27T13:33:25.672Z,31.10
2019-06-27T13:35:55.625Z,31.20
2019-06-27T13:38:25.492Z,31.20
2019-06-27T13:40:55.408Z,31.40
2019-06-27T13:43:25.428Z,31.50
2019-06-27T13:45:55.326Z,31.40
2019-06-27T13:48:25.283Z,31.60
2019-06-27T13:50:57.640Z,31.60
2019-06-27T13:53:26.891Z,31.70
2019-06-27T13:55:56.779Z,31.80
2019-06-27T13:58:26.660Z,31.80
2019-06-27T14:00:56.550Z,31.80
2019-06-27T14:03:26.433Z,31.80
2019-06-27T14:05:56.415Z,31.90
2019-06-27T14:08:26.486Z,32.00
2019-06-27T14:10:56.505Z,32.00
2019-06-27T14:13:26.475Z,32.20
2019-06-27T14:15:56.360Z,32.30
2019-06-27T14:18:26.227Z,32.30
2019-06-27T14:20:56.196Z,32.20
2019-06-27T14:23:26.072Z,32.30
2019-06-27T14:25:56.026Z,32.40
2019-06-27T14:28:25.944Z,32.50
2019-06-27T14:30:55.841Z,32.50
2019-06-27T14:33:25.938Z,32.70
2019-06-27T14:35:55.813Z,32.80
2019-06-27T14:38:25.705Z,32.90
2019-06-27T14:40:55.579Z,33.00
2019-06-27T14:43:25.469Z,33.00
2019-06-27T14:45:55.359Z,33.10
2019-06-27T14:48:25.231Z,33.20
2019-06-27T14:50:55.175Z,33.30
2019-06-27T14:53:25.206Z,33.30
2019-06-27T14:55:55.147Z,33.40
2019-06-27T14:58:25.015Z,33.60
2019-06-27T15:00:55.011Z,35.00
2019-06-27T15:03:25.133Z,39.40
2019-06-27T15:08:24.438Z,41.10
2019-06-27T15:10:54.431Z,42.30
2019-06-27T15:13:24.443Z,43.50
2019-06-27T15:16:07.426Z,44.70
2019-06-27T15:18:25.940Z,45.50
2019-06-27T15:20:55.876Z,46.20
2019-06-27T15:23:29.003Z,47.00
2019-06-27T15:25:57.491Z,47.20
2019-06-27T15:28:27.395Z,47.50
2019-06-27T15:30:57.459Z,47.90
2019-06-27T15:33:27.460Z,47.60
2019-06-27T15:35:57.420Z,48.10
2019-06-27T15:38:27.299Z,47.10
2019-06-27T15:40:57.195Z,46.70
2019-06-27T15:43:27.083Z,47.60
2019-06-27T15:45:57.087Z,50.00
2019-06-27T15:48:26.959Z,50.00
2019-06-27T15:50:56.920Z,50.20
2019-06-27T15:53:26.806Z,48.30
2019-06-27T15:55:56.808Z,43.60
2019-06-27T15:58:26.816Z,40.80
2019-06-27T16:00:56.810Z,38.70
2019-06-27T16:03:26.754Z,37.80
2019-06-27T16:06:08.648Z,37.50
2019-06-27T16:08:28.290Z,37.00
2019-06-27T16:10:58.166Z,36.60
2019-06-27T16:13:28.079Z,36.40
2019-06-27T16:15:57.960Z,35.90
2019-06-27T16:18:27.843Z,35.60
2019-06-27T16:20:57.736Z,35.10
2019-06-27T16:23:27.630Z,35.20
2019-06-27T16:25:57.514Z,35.00
2019-06-27T16:28:27.552Z,35.00
2019-06-27T16:30:57.479Z,34.90
2019-06-27T16:33:27.368Z,34.40
2019-06-27T16:38:26.815Z,33.50
2019-06-27T16:40:56.738Z,33.30
2019-06-27T16:43:26.712Z,33.20
2019-06-27T16:45:56.702Z,33.30
2019-06-27T16:48:26.605Z,33.40
2019-06-27T16:50:56.583Z,33.30
2019-06-27T16:53:26.481Z,32.90
2019-06-27T16:55:56.590Z,32.90
2019-06-27T16:58:26.512Z,32.90
2019-06-27T17:00:56.545Z,33.10
2019-06-27T17:03:26.538Z,32.90
2019-06-27T17:05:56.519Z,32.80
2019-06-27T17:08:26.388Z,32.60
2019-06-27T17:10:58.654Z,32.60
2019-06-27T17:13:28.019Z,32.40
2019-06-27T17:15:57.971Z,32.40
2019-06-27T17:18:27.965Z,32.40
2019-06-27T17:20:57.959Z,32.40
2019-06-27T17:23:27.855Z,32.50
2019-06-27T17:25:57.814Z,32.60
2019-06-27T17:28:27.683Z,32.40
2019-06-27T17:30:57.584Z,32.30
2019-06-27T17:33:27.475Z,32.30
2019-06-27T17:35:57.372Z,32.20
2019-06-27T17:38:27.336Z,32.20
2019-06-27T17:40:58.095Z,32.30
2019-06-27T17:43:27.963Z,32.10
2019-06-27T17:45:57.903Z,32.10
2019-06-27T17:48:27.791Z,32.00
2019-06-27T17:50:58.510Z,31.90
2019-06-27T17:53:28.413Z,31.60
2019-06-27T17:55:58.423Z,31.70
2019-06-27T17:58:28.304Z,31.50
2019-06-27T18:00:58.209Z,31.50
2019-06-27T18:03:28.083Z,31.40
2019-06-27T18:05:58.312Z,31.50
2019-06-27T18:08:28.330Z,31.40
2019-06-27T18:10:58.301Z,31.40
2019-06-27T18:13:28.206Z,31.60
2019-06-27T18:15:58.244Z,31.30
2019-06-27T18:18:28.153Z,31.30
2019-06-27T18:20:58.085Z,31.30
2019-06-27T18:23:28.060Z,31.20
2019-06-27T18:25:58.240Z,31.20
2019-06-27T18:28:28.115Z,31.10
2019-06-27T18:31:01.378Z,31.00
2019-06-27T18:33:31.264Z,31.10
2019-06-27T18:36:03.116Z,31.00
2019-06-27T18:38:32.822Z,31.00
2019-06-27T18:41:02.741Z,31.00
2019-06-27T18:43:32.763Z,31.00
2019-06-27T18:46:02.846Z,30.90
2019-06-27T18:48:32.721Z,30.90
2019-06-27T18:51:02.586Z,30.90
2019-06-27T18:53:32.506Z,30.70
2019-06-27T18:56:02.396Z,30.70
2019-06-27T18:58:32.278Z,30.70
2019-06-27T19:01:02.172Z,30.70
2019-06-27T19:03:52.056Z,30.60
2019-06-27T19:06:22.001Z,30.70
2019-06-27T19:08:51.893Z,30.60
2019-06-27T19:11:21.839Z,30.60
2019-06-27T19:13:51.720Z,30.50
2019-06-27T19:16:21.619Z,30.50
2019-06-27T19:18:55.990Z,30.40
2019-06-27T19:21:36.347Z,30.30
2019-06-27T19:24:43.536Z,30.30
2019-06-27T19:27:13.428Z,30.30
2019-06-27T19:29:43.371Z,30.20
2019-06-27T19:32:13.255Z,30.20
2019-06-27T19:34:43.219Z,30.20
2019-06-27T19:37:13.167Z,30.20
2019-06-27T19:39:43.067Z,30.10
2019-06-27T19:42:13.047Z,30.10
2019-06-27T19:44:43.019Z,30.10
2019-06-27T19:47:13.123Z,30.10
2019-06-27T19:49:43.267Z,30.00
2019-06-27T19:52:13.312Z,30.00
2019-06-27T19:54:43.290Z,29.90
2019-06-27T19:57:13.251Z,29.80
2019-06-27T19:59:43.239Z,29.80
2019-06-27T20:02:13.206Z,29.80
2019-06-27T20:04:43.090Z,29.70
2019-06-27T20:07:12.982Z,29.70
2019-06-27T20:09:43.081Z,29.60
2019-06-27T20:12:12.950Z,29.60
2019-06-27T20:14:42.851Z,29.50
2019-06-27T20:17:12.724Z,29.40
2019-06-27T20:19:42.618Z,29.40
2019-06-27T20:22:12.516Z,29.40
2019-06-27T20:24:42.390Z,29.30
2019-06-27T20:27:12.384Z,29.20
2019-06-27T20:29:42.247Z,29.20
2019-06-27T20:32:12.246Z,29.10
2019-06-27T20:34:42.155Z,29.20
2019-06-27T20:37:12.069Z,29.10
2019-06-27T20:39:41.983Z,29.10
2019-06-27T20:42:11.919Z,29.10
2019-06-27T20:44:41.811Z,29.00
2019-06-27T20:47:11.679Z,29.00
2019-06-27T20:49:41.552Z,29.00
2019-06-27T20:52:11.466Z,28.90
2019-06-27T20:54:41.355Z,28.80
2019-06-27T20:57:11.297Z,28.80
2019-06-27T20:59:41.207Z,28.70
2019-06-27T21:02:11.170Z,28.70
2019-06-27T21:04:41.061Z,28.60
2019-06-27T21:07:10.951Z,28.60
2019-06-27T21:09:40.855Z,28.50
2019-06-27T21:12:10.731Z,28.50
2019-06-27T21:14:40.604Z,28.40
2019-06-27T21:17:10.527Z,28.50
